createdAt,value
2022-11-02T00:01:41.632Z,9.70
2022-11-02T00:04:09.104Z,9.70
2022-11-02T00:06:36.399Z,9.80
2022-11-02T00:09:03.374Z,9.80
2022-11-02T00:11:30.061Z,9.80
2022-11-02T00:13:56.881Z,9.80
2022-11-02T00:16:25.219Z,9.80
2022-11-02T00:18:56.081Z,9.80
2022-11-02T00:21:25.665Z,9.70
2022-11-02T00:23:53.144Z,9.70
2022-11-02T00:26:20.085Z,9.70
2022-11-02T00:28:46.841Z,9.60
2022-11-02T00:31:13.602Z,9.70
2022-11-02T00:33:40.320Z,9.70
2022-11-02T00:36:08.910Z,9.70
2022-11-02T00:38:35.826Z,9.60
2022-11-02T00:41:02.598Z,9.70
2022-11-02T00:43:29.406Z,9.70
2022-11-02T00:45:56.596Z,9.70
2022-11-02T00:48:23.528Z,9.60
2022-11-02T00:50:50.294Z,9.60
2022-11-02T00:53:18.703Z,9.70
2022-11-02T00:55:53.834Z,9.70
2022-11-02T00:58:21.263Z,9.70
2022-11-02T01:00:49.746Z,9.70
2022-11-02T01:03:16.587Z,9.70
2022-11-02T01:05:43.409Z,9.70
2022-11-02T01:08:10.195Z,9.70
2022-11-02T01:10:37.078Z,9.60
2022-11-02T01:13:03.846Z,9.70
2022-11-02T01:15:31.458Z,9.60
2022-11-02T01:17:58.633Z,9.60
2022-11-02T01:20:27.162Z,9.70
2022-11-02T01:22:54.002Z,9.80
2022-11-02T01:25:20.757Z,9.80
2022-11-02T01:27:47.674Z,9.80
2022-11-02T01:30:14.469Z,9.80
2022-11-02T01:32:43.771Z,9.70
2022-11-02T01:35:10.517Z,9.70
2022-11-02T01:37:38.558Z,9.70
2022-11-02T01:40:06.192Z,9.60
2022-11-02T01:42:32.936Z,9.60
2022-11-02T01:44:59.823Z,9.50
2022-11-02T01:47:31.478Z,9.50
2022-11-02T01:50:04.921Z,9.50
2022-11-02T01:52:35.971Z,9.50
2022-11-02T01:55:24.918Z,9.50
2022-11-02T01:57:59.012Z,9.50
2022-11-02T02:00:25.875Z,9.50
2022-11-02T02:02:56.018Z,9.40
2022-11-02T02:05:25.071Z,9.40
2022-11-02T02:07:52.991Z,9.40
2022-11-02T02:10:19.862Z,9.40
2022-11-02T02:12:47.798Z,9.30
2022-11-02T02:15:20.025Z,9.30
2022-11-02T02:18:01.134Z,9.30
2022-11-02T02:20:46.469Z,9.30
2022-11-02T02:23:15.903Z,9.30
2022-11-02T02:26:11.069Z,9.30
2022-11-02T02:29:02.995Z,9.40
2022-11-02T02:32:02.468Z,9.30
2022-11-02T02:34:46.892Z,9.40
2022-11-02T02:37:22.575Z,9.40
2022-11-02T02:40:02.640Z,9.40
2022-11-02T02:42:38.291Z,9.40
2022-11-02T02:45:04.979Z,9.40
2022-11-02T02:47:35.355Z,9.50
2022-11-02T02:50:19.784Z,9.50
2022-11-02T02:52:50.658Z,9.50
2022-11-02T02:55:24.245Z,9.60
2022-11-02T02:57:53.014Z,9.60
2022-11-02T03:00:20.031Z,9.60
2022-11-02T03:03:01.106Z,9.60
2022-11-02T03:05:33.796Z,9.70
2022-11-02T03:08:08.819Z,9.70
2022-11-02T03:10:48.116Z,9.80
2022-11-02T03:13:30.254Z,9.80
2022-11-02T03:16:04.419Z,9.90
2022-11-02T03:19:17.351Z,9.90
2022-11-02T03:21:45.610Z,9.90
2022-11-02T03:24:16.262Z,9.90
2022-11-02T03:27:08.623Z,10.00
2022-11-02T03:29:48.038Z,10.00
2022-11-02T03:32:24.939Z,10.00
2022-11-02T03:34:59.235Z,10.00
2022-11-02T03:37:30.517Z,10.10
2022-11-02T03:40:19.745Z,10.10
2022-11-02T03:42:47.974Z,10.20
2022-11-02T03:45:29.462Z,10.20
2022-11-02T03:48:04.351Z,10.30
2022-11-02T03:50:33.593Z,10.30
2022-11-02T03:53:17.807Z,10.30
2022-11-02T03:55:51.304Z,10.30
2022-11-02T03:58:18.102Z,10.40
2022-11-02T04:00:58.439Z,10.40
2022-11-02T04:03:25.578Z,10.50
2022-11-02T04:05:53.992Z,10.50
2022-11-02T04:08:40.306Z,10.50
2022-11-02T04:11:28.234Z,10.50
2022-11-02T04:14:18.668Z,10.60
2022-11-02T04:16:45.845Z,10.60
2022-11-02T04:19:28.481Z,10.70
2022-11-02T04:22:18.650Z,10.70
2022-11-02T04:25:07.479Z,10.70
2022-11-02T04:27:35.999Z,10.70
2022-11-02T04:30:05.330Z,10.80
2022-11-02T04:32:56.862Z,10.70
2022-11-02T04:35:25.545Z,10.70
2022-11-02T04:38:11.937Z,10.60
2022-11-02T04:40:40.082Z,10.60
2022-11-02T04:43:07.426Z,10.60
2022-11-02T04:45:35.655Z,10.60
2022-11-02T04:48:08.332Z,10.50
2022-11-02T04:50:36.658Z,10.60
2022-11-02T04:53:07.115Z,10.60
2022-11-02T04:55:34.797Z,10.50
2022-11-02T04:58:01.993Z,10.50
2022-11-02T05:00:29.111Z,10.50
2022-11-02T05:02:56.067Z,10.40
2022-11-02T05:05:25.005Z,10.40
2022-11-02T05:07:54.781Z,10.40
2022-11-02T05:10:22.740Z,10.30
2022-11-02T05:12:57.428Z,10.30
2022-11-02T05:15:25.666Z,10.20
2022-11-02T05:17:52.570Z,10.20
2022-11-02T05:20:19.295Z,10.10
2022-11-02T05:22:46.061Z,10.10
2022-11-02T05:25:14.459Z,10.00
2022-11-02T05:27:42.263Z,10.00
2022-11-02T05:30:10.263Z,9.90
2022-11-02T05:32:37.817Z,9.80
2022-11-02T05:35:05.083Z,9.90
2022-11-02T05:37:33.069Z,9.90
2022-11-02T05:39:59.972Z,9.90
2022-11-02T05:42:26.754Z,9.90
2022-11-02T05:44:53.406Z,9.90
2022-11-02T05:47:20.137Z,9.90
2022-11-02T05:49:46.800Z,9.80
2022-11-02T05:52:13.495Z,9.70
2022-11-02T05:54:40.232Z,9.60
2022-11-02T05:57:07.135Z,9.60
2022-11-02T05:59:33.824Z,9.60
2022-11-02T06:02:00.657Z,9.60
2022-11-02T06:04:27.463Z,9.60
2022-11-02T06:06:54.199Z,9.60
2022-11-02T06:09:20.941Z,9.60
2022-11-02T06:11:47.764Z,9.60
2022-11-02T06:14:14.489Z,9.60
2022-11-02T06:16:41.388Z,9.60
2022-11-02T06:19:08.162Z,9.50
2022-11-02T06:21:34.897Z,9.60
2022-11-02T06:24:01.833Z,9.50
2022-11-02T06:26:31.558Z,9.50
2022-11-02T06:28:58.283Z,9.40
2022-11-02T06:31:25.106Z,9.50
2022-11-02T06:33:51.882Z,9.40
2022-11-02T06:36:18.658Z,9.50
2022-11-02T06:38:46.134Z,9.50
2022-11-02T06:41:12.940Z,9.50
2022-11-02T06:43:40.850Z,9.50
2022-11-02T06:46:07.788Z,9.40
2022-11-02T06:48:35.602Z,9.40
2022-11-02T06:51:04.196Z,9.50
2022-11-02T06:53:31.609Z,9.50
2022-11-02T06:55:59.755Z,9.60
2022-11-02T06:58:26.735Z,9.60
2022-11-02T07:00:57.550Z,9.60
2022-11-02T07:03:24.695Z,9.60
2022-11-02T07:05:52.440Z,9.60
2022-11-02T07:08:22.256Z,9.60
2022-11-02T07:10:49.547Z,9.60
2022-11-02T07:13:16.592Z,9.60
2022-11-02T07:15:43.646Z,9.60
2022-11-02T07:18:10.377Z,9.70
2022-11-02T07:20:37.234Z,9.80
2022-11-02T07:23:05.577Z,9.90
2022-11-02T07:25:36.094Z,10.00
2022-11-02T07:28:03.583Z,10.10
2022-11-02T07:30:34.383Z,10.30
2022-11-02T07:33:01.484Z,10.40
2022-11-02T07:35:28.927Z,10.60
2022-11-02T07:38:01.134Z,10.70
2022-11-02T07:40:29.395Z,11.00
2022-11-02T07:42:58.709Z,11.40
2022-11-02T07:45:51.761Z,12.00
2022-11-02T07:48:18.883Z,12.90
2022-11-02T07:50:45.792Z,13.90
2022-11-02T07:53:12.808Z,14.50
2022-11-02T07:55:40.069Z,15.40
2022-11-02T07:58:17.488Z,16.20
2022-11-02T08:00:53.774Z,17.00
2022-11-02T08:03:22.749Z,17.40
2022-11-02T08:05:49.640Z,17.70
2022-11-02T08:08:19.347Z,18.00
2022-11-02T08:10:48.549Z,17.90
2022-11-02T08:13:18.781Z,18.10
2022-11-02T08:15:48.893Z,18.50
2022-11-02T08:18:24.138Z,18.60
2022-11-02T08:20:51.287Z,18.50
2022-11-02T08:23:22.752Z,19.00
2022-11-02T08:25:51.337Z,19.30
2022-11-02T08:28:26.901Z,19.20
2022-11-02T08:30:54.310Z,19.30
2022-11-02T08:33:21.548Z,19.60
2022-11-02T08:35:48.892Z,20.00
2022-11-02T08:38:16.630Z,20.10
2022-11-02T08:40:44.955Z,20.40
2022-11-02T08:43:13.928Z,20.50
2022-11-02T08:46:13.196Z,20.90
2022-11-02T08:48:31.680Z,20.60
2022-11-02T08:50:58.424Z,20.10
2022-11-02T08:53:25.595Z,20.50
2022-11-02T08:55:52.536Z,20.50
2022-11-02T08:58:19.349Z,20.30
2022-11-02T09:00:46.207Z,21.00
2022-11-02T09:03:14.590Z,21.70
2022-11-02T09:05:46.480Z,21.10
2022-11-02T09:08:19.661Z,21.50
2022-11-02T09:10:52.403Z,21.60
2022-11-02T09:13:25.587Z,21.20
2022-11-02T09:15:54.763Z,20.50
2022-11-02T09:18:25.449Z,21.00
2022-11-02T09:20:53.806Z,21.00
2022-11-02T09:23:23.938Z,21.40
2022-11-02T09:25:51.211Z,21.10
2022-11-02T09:28:18.553Z,21.20
2022-11-02T09:30:45.829Z,21.30
2022-11-02T09:33:13.467Z,21.30
2022-11-02T09:35:43.602Z,21.50
2022-11-02T09:38:11.230Z,21.00
2022-11-02T09:40:39.782Z,21.10
2022-11-02T09:43:12.392Z,21.50
2022-11-02T09:45:48.688Z,21.70
2022-11-02T09:48:28.306Z,22.50
2022-11-02T09:51:09.182Z,22.70
2022-11-02T09:53:44.454Z,23.50
2022-11-02T09:56:13.893Z,23.40
2022-11-02T09:58:43.398Z,23.10
2022-11-02T10:01:30.343Z,22.90
2022-11-02T10:04:31.318Z,23.50
2022-11-02T10:07:16.183Z,22.70
2022-11-02T10:09:50.557Z,22.60
2022-11-02T10:12:29.562Z,23.00
2022-11-02T10:15:11.081Z,23.20
2022-11-02T10:17:41.523Z,23.40
2022-11-02T10:20:42.469Z,24.60
2022-11-02T10:23:18.318Z,23.80
2022-11-02T10:25:47.758Z,24.70
2022-11-02T10:28:26.267Z,25.30
2022-11-02T10:30:54.728Z,25.30
2022-11-02T10:33:31.283Z,25.10
2022-11-02T10:36:20.637Z,25.80
2022-11-02T10:39:07.002Z,26.00
2022-11-02T10:41:58.843Z,25.20
2022-11-02T10:44:41.709Z,24.30
2022-11-02T10:47:25.675Z,23.40
2022-11-02T10:50:12.669Z,22.70
2022-11-02T10:52:42.908Z,22.70
2022-11-02T10:55:34.317Z,22.90
2022-11-02T10:58:05.147Z,21.90
2022-11-02T11:00:37.164Z,21.20
2022-11-02T11:03:10.128Z,20.90
2022-11-02T11:05:51.721Z,21.60
2022-11-02T11:08:27.690Z,23.20
2022-11-02T11:10:55.011Z,23.90
2022-11-02T11:16:16.270Z,23.10
2022-11-02T11:21:51.015Z,26.70
2022-11-02T11:24:25.216Z,27.40
2022-11-02T11:27:11.540Z,26.10
2022-11-02T11:29:41.404Z,26.60
2022-11-02T11:32:19.140Z,27.10
2022-11-02T11:34:57.487Z,26.60
2022-11-02T11:37:26.179Z,27.00
2022-11-02T11:39:58.684Z,27.10
2022-11-02T11:42:29.082Z,25.60
2022-11-02T11:45:05.885Z,24.40
2022-11-02T11:47:38.259Z,23.80
2022-11-02T11:50:21.325Z,24.40
2022-11-02T11:53:21.434Z,25.20
2022-11-02T11:55:51.388Z,24.80
2022-11-02T11:58:30.044Z,24.50
2022-11-02T12:01:12.465Z,25.40
2022-11-02T12:03:56.076Z,25.20
2022-11-02T12:06:32.852Z,24.80
2022-11-02T12:09:18.580Z,23.80
2022-11-02T12:12:11.797Z,24.30
2022-11-02T12:15:06.424Z,25.70
2022-11-02T12:17:43.662Z,25.10
2022-11-02T12:20:34.926Z,24.20
2022-11-02T12:23:21.660Z,23.40
2022-11-02T12:26:19.165Z,23.70
2022-11-02T12:29:37.616Z,24.60
2022-11-02T12:32:28.739Z,26.60
2022-11-02T12:35:27.209Z,27.60
2022-11-02T12:38:05.186Z,28.40
2022-11-02T12:41:14.344Z,29.60
2022-11-02T12:43:45.771Z,27.80
2022-11-02T12:46:56.063Z,26.50
2022-11-02T12:49:56.411Z,26.40
2022-11-02T12:52:29.487Z,26.20
2022-11-02T12:54:59.507Z,26.40
2022-11-02T12:57:30.482Z,26.60
2022-11-02T13:00:04.429Z,27.20
2022-11-02T13:02:59.619Z,27.50
2022-11-02T13:05:33.089Z,28.20
2022-11-02T13:08:03.078Z,28.50
2022-11-02T13:10:47.179Z,28.80
2022-11-02T13:13:35.184Z,28.70
2022-11-02T13:16:03.295Z,28.10
2022-11-02T13:18:47.957Z,27.10
2022-11-02T13:21:23.219Z,27.20
2022-11-02T13:23:55.126Z,27.20
2022-11-02T13:26:25.330Z,27.80
2022-11-02T13:29:02.542Z,29.10
2022-11-02T13:31:48.949Z,30.40
2022-11-02T13:34:21.454Z,30.30
2022-11-02T13:36:49.218Z,29.70
2022-11-02T13:39:26.342Z,30.30
2022-11-02T13:42:32.747Z,28.90
2022-11-02T13:45:15.395Z,28.20
2022-11-02T13:48:08.432Z,27.90
2022-11-02T13:50:42.369Z,28.20
2022-11-02T13:53:17.328Z,27.90
2022-11-02T13:55:52.269Z,27.80
2022-11-02T13:58:27.142Z,27.00
2022-11-02T14:00:59.963Z,27.00
2022-11-02T14:04:01.845Z,25.80
2022-11-02T14:06:31.960Z,23.70
2022-11-02T14:09:08.698Z,22.30
2022-11-02T14:11:41.804Z,22.10
2022-11-02T14:14:11.490Z,23.20
2022-11-02T14:16:51.047Z,24.60
2022-11-02T14:19:19.182Z,25.50
2022-11-02T14:21:53.263Z,25.80
2022-11-02T14:24:36.206Z,25.70
2022-11-02T14:27:12.287Z,25.50
2022-11-02T14:29:42.232Z,25.10
2022-11-02T14:32:16.851Z,24.90
2022-11-02T14:35:00.582Z,24.30
2022-11-02T14:38:05.265Z,23.20
2022-11-02T14:40:44.629Z,22.20
2022-11-02T14:44:03.058Z,21.60
2022-11-02T14:47:00.466Z,20.50
2022-11-02T14:49:34.264Z,19.70
2022-11-02T14:52:25.759Z,19.30
2022-11-02T14:55:04.861Z,18.90
2022-11-02T14:57:42.057Z,18.30
2022-11-02T15:00:23.307Z,18.00
2022-11-02T15:02:53.073Z,17.70
2022-11-02T15:05:36.439Z,17.50
2022-11-02T15:08:06.660Z,17.40
2022-11-02T15:10:35.667Z,17.20
2022-11-02T15:13:21.144Z,17.20
2022-11-02T15:15:50.866Z,16.90
2022-11-02T15:18:34.229Z,16.80
2022-11-02T15:21:10.509Z,16.80
2022-11-02T15:24:04.176Z,16.60
2022-11-02T15:26:53.727Z,16.50
2022-11-02T15:29:32.027Z,16.40
2022-11-02T15:32:01.120Z,16.20
2022-11-02T15:34:43.940Z,16.10
2022-11-02T15:37:18.659Z,15.80
2022-11-02T15:39:54.519Z,15.80
2022-11-02T15:42:33.135Z,15.60
2022-11-02T15:45:27.086Z,15.40
2022-11-02T15:48:30.734Z,15.30
2022-11-02T15:51:26.116Z,15.10
2022-11-02T15:54:04.281Z,15.00
2022-11-02T15:56:41.185Z,14.70
2022-11-02T15:59:17.306Z,14.60
2022-11-02T16:01:44.473Z,14.40
2022-11-02T16:04:20.329Z,14.20
2022-11-02T16:06:49.483Z,14.00
2022-11-02T16:09:33.347Z,13.80
2022-11-02T16:12:21.529Z,13.70
2022-11-02T16:15:09.451Z,13.50
2022-11-02T16:17:36.234Z,13.40
2022-11-02T16:20:10.963Z,13.30
2022-11-02T16:22:38.399Z,13.10
2022-11-02T16:25:16.880Z,13.00
2022-11-02T16:27:43.788Z,12.80
2022-11-02T16:30:17.842Z,12.70
2022-11-02T16:32:45.994Z,12.60
2022-11-02T16:35:18.836Z,12.40
2022-11-02T16:37:45.847Z,12.30
2022-11-02T16:40:20.584Z,12.20
2022-11-02T16:42:50.338Z,12.10
2022-11-02T16:45:53.062Z,12.00
2022-11-02T16:48:26.401Z,11.90
2022-11-02T16:51:13.498Z,11.80
2022-11-02T16:53:45.014Z,11.60
2022-11-02T16:56:27.756Z,11.50
2022-11-02T16:59:02.995Z,11.40
2022-11-02T17:01:39.243Z,11.30
2022-11-02T17:04:24.947Z,11.20
2022-11-02T17:06:56.167Z,11.10
2022-11-02T17:09:28.556Z,10.90
2022-11-02T17:12:05.741Z,10.90
2022-11-02T17:14:33.101Z,10.70
2022-11-02T17:17:06.746Z,10.60
2022-11-02T17:19:39.773Z,10.50
2022-11-02T17:22:22.274Z,10.40
2022-11-02T17:27:37.658Z,10.10
2022-11-02T17:30:33.881Z,10.00
2022-11-02T17:33:09.981Z,9.90
2022-11-02T17:35:42.329Z,9.70
2022-11-02T17:38:12.385Z,9.70
2022-11-02T17:40:39.446Z,9.60
2022-11-02T17:43:06.106Z,9.60
2022-11-02T17:45:38.293Z,9.60
2022-11-02T17:48:07.016Z,9.60
2022-11-02T17:50:36.798Z,9.60
2022-11-02T17:53:05.807Z,9.60
2022-11-02T17:55:34.960Z,9.60
2022-11-02T17:58:01.793Z,9.50
2022-11-02T18:00:28.928Z,9.40
2022-11-02T18:02:58.224Z,9.30
2022-11-02T18:05:30.064Z,9.30
2022-11-02T18:07:58.596Z,9.30
2022-11-02T18:10:30.314Z,9.30
2022-11-02T18:12:57.426Z,9.20
2022-11-02T18:15:27.007Z,9.10
2022-11-02T18:17:55.406Z,9.10
2022-11-02T18:20:23.683Z,9.00
2022-11-02T18:22:50.940Z,9.00
2022-11-02T18:27:56.605Z,8.90
2022-11-02T18:30:26.384Z,8.90
2022-11-02T18:32:54.296Z,8.80
2022-11-02T18:35:22.600Z,8.70
2022-11-02T18:37:56.103Z,8.60
2022-11-02T18:40:22.897Z,8.50
2022-11-02T18:42:50.192Z,8.30
2022-11-02T18:45:18.044Z,8.30
2022-11-02T18:47:45.202Z,8.20
2022-11-02T18:50:13.484Z,8.20
2022-11-02T18:52:41.950Z,8.10
2022-11-02T18:55:08.754Z,8.10
2022-11-02T18:57:35.476Z,8.00
2022-11-02T19:00:03.014Z,8.00
2022-11-02T19:02:30.376Z,8.00
2022-11-02T19:04:57.417Z,8.00
2022-11-02T19:07:42.971Z,8.00
2022-11-02T19:10:10.069Z,8.00
2022-11-02T19:12:37.212Z,7.90
2022-11-02T19:15:05.027Z,7.80
2022-11-02T19:17:32.110Z,7.70
2022-11-02T19:19:58.915Z,7.70
2022-11-02T19:22:26.476Z,7.60
2022-11-02T19:24:53.555Z,7.60
2022-11-02T19:27:21.460Z,7.40
2022-11-02T19:29:48.650Z,7.40
2022-11-02T19:32:15.998Z,7.40
2022-11-02T19:34:43.145Z,7.30
2022-11-02T19:37:10.494Z,7.30
2022-11-02T19:39:37.284Z,7.20
2022-11-02T19:42:06.570Z,7.20
2022-11-02T19:44:35.988Z,7.20
2022-11-02T19:47:07.869Z,7.20
2022-11-02T19:49:34.748Z,7.20
2022-11-02T19:52:01.485Z,7.20
2022-11-02T19:54:28.226Z,7.20
2022-11-02T19:56:54.985Z,7.20
2022-11-02T19:59:22.518Z,7.10
2022-11-02T20:01:50.691Z,7.10
2022-11-02T20:04:17.987Z,7.10
2022-11-02T20:06:44.844Z,7.10
2022-11-02T20:09:17.302Z,7.10
2022-11-02T20:11:45.459Z,7.00
2022-11-02T20:14:13.772Z,7.00
2022-11-02T20:16:40.943Z,7.00
2022-11-02T20:19:07.714Z,7.00
2022-11-02T20:21:39.806Z,6.90
2022-11-02T20:24:09.603Z,6.90
2022-11-02T20:26:36.808Z,6.80
2022-11-02T20:29:06.298Z,6.80
2022-11-02T20:31:36.417Z,6.70
2022-11-02T20:34:04.817Z,6.70
2022-11-02T20:36:31.726Z,6.70
2022-11-02T20:38:58.801Z,6.70
2022-11-02T20:41:26.116Z,6.60
2022-11-02T20:43:57.585Z,6.60
2022-11-02T20:46:45.271Z,6.60
2022-11-02T20:49:29.039Z,6.50
2022-11-02T20:52:02.386Z,6.50
2022-11-02T20:54:29.856Z,6.50
2022-11-02T20:56:57.716Z,6.50
2022-11-02T20:59:25.288Z,6.50
2022-11-02T21:01:52.229Z,6.50
2022-11-02T21:04:21.221Z,6.50
2022-11-02T21:06:51.740Z,6.50
2022-11-02T21:09:19.344Z,6.50
2022-11-02T21:12:04.723Z,6.50
2022-11-02T21:14:31.822Z,6.50
2022-11-02T21:16:58.575Z,6.50
2022-11-02T21:19:25.329Z,6.50
2022-11-02T21:21:58.122Z,6.50
2022-11-02T21:24:26.694Z,6.60
2022-11-02T21:26:53.418Z,6.60
2022-11-02T21:29:21.306Z,6.70
2022-11-02T21:31:48.423Z,6.60
2022-11-02T21:34:15.254Z,6.60
2022-11-02T21:36:42.063Z,6.60
2022-11-02T21:39:08.811Z,6.50
2022-11-02T21:41:38.771Z,6.50
2022-11-02T21:44:07.193Z,6.50
2022-11-02T21:46:34.451Z,6.40
2022-11-02T21:49:01.421Z,6.40
2022-11-02T21:51:28.632Z,6.30
2022-11-02T21:53:56.619Z,6.30
2022-11-02T21:56:26.859Z,6.30
2022-11-02T21:58:55.550Z,6.20
2022-11-02T22:01:46.483Z,6.20
2022-11-02T22:04:25.293Z,6.30
2022-11-02T22:06:52.645Z,6.30
2022-11-02T22:09:19.549Z,6.30
2022-11-02T22:11:46.867Z,6.40
2022-11-02T22:14:14.251Z,6.40
2022-11-02T22:16:42.742Z,6.50
2022-11-02T22:19:16.278Z,6.50
2022-11-02T22:21:44.843Z,6.50
2022-11-02T22:24:12.705Z,6.50
2022-11-02T22:26:40.591Z,6.60
2022-11-02T22:29:08.277Z,6.50
2022-11-02T22:31:38.664Z,6.50
2022-11-02T22:34:08.103Z,6.40
2022-11-02T22:36:35.937Z,6.40
2022-11-02T22:39:04.984Z,6.40
2022-11-02T22:41:35.558Z,6.40
2022-11-02T22:44:07.832Z,6.40
2022-11-02T22:46:38.539Z,6.30
2022-11-02T22:49:07.074Z,6.30
2022-11-02T22:51:36.866Z,6.30
2022-11-02T22:54:06.156Z,6.30
2022-11-02T22:56:33.903Z,6.30
2022-11-02T22:59:01.975Z,6.20
2022-11-02T23:01:30.427Z,6.20
2022-11-02T23:03:58.235Z,6.20
2022-11-02T23:06:25.967Z,6.20
2022-11-02T23:08:55.692Z,6.10
2022-11-02T23:11:24.956Z,6.10
2022-11-02T23:14:00.534Z,6.00
2022-11-02T23:16:33.236Z,5.90
2022-11-02T23:19:25.383Z,5.90
2022-11-02T23:22:19.815Z,5.90
2022-11-02T23:25:08.692Z,5.80
2022-11-02T23:27:58.896Z,5.80
2022-11-02T23:30:47.836Z,5.80
2022-11-02T23:33:15.112Z,5.70
2022-11-02T23:36:00.881Z,5.80
2022-11-02T23:38:46.489Z,5.80
2022-11-02T23:41:13.524Z,5.90
2022-11-02T23:43:40.326Z,5.90
2022-11-02T23:46:07.288Z,5.90
2022-11-02T23:48:34.142Z,5.80
2022-11-02T23:51:20.424Z,5.80
2022-11-02T23:54:06.244Z,5.80
2022-11-02T23:56:43.289Z,5.80
2022-11-02T23:59:15.175Z,5.90
